sensor_id;sensor_type;location;lat;lon;timestamp;P1;durP1;ratioP1;P2;durP2;ratioP2
68353;SDS011;55274;43.060;25.618;2023-04-03T00:01:08;5.80;;;2.63;;
68353;SDS011;55274;43.060;25.618;2023-04-03T00:03:34;3.97;;;2.40;;
68353;SDS011;55274;43.060;25.618;2023-04-03T00:06:00;4.47;;;2.28;;
68353;SDS011;55274;43.060;25.618;2023-04-03T00:08:26;3.90;;;2.50;;
68353;SDS011;55274;43.060;25.618;2023-04-03T00:10:52;4.95;;;2.25;;
68353;SDS011;55274;43.060;25.618;2023-04-03T00:13:18;3.85;;;2.33;;
68353;SDS011;55274;43.060;25.618;2023-04-03T00:15:44;5.25;;;2.90;;
68353;SDS011;55274;43.060;25.618;2023-04-03T00:18:10;4.53;;;2.17;;
68353;SDS011;55274;43.060;25.618;2023-04-03T00:20:36;4.95;;;2.63;;
68353;SDS011;55274;43.060;25.618;2023-04-03T00:23:02;4.70;;;2.50;;
68353;SDS011;55274;43.060;25.618;2023-04-03T00:25:27;5.00;;;2.45;;
68353;SDS011;55274;43.060;25.618;2023-04-03T00:27:53;5.90;;;2.40;;
68353;SDS011;55274;43.060;25.618;2023-04-03T00:30:20;7.43;;;2.97;;
68353;SDS011;55274;43.060;25.618;2023-04-03T00:32:47;5.70;;;2.35;;
68353;SDS011;55274;43.060;25.618;2023-04-03T00:35:14;4.53;;;2.70;;
68353;SDS011;55274;43.060;25.618;2023-04-03T00:37:42;4.55;;;2.53;;
68353;SDS011;55274;43.060;25.618;2023-04-03T00:40:09;6.55;;;2.60;;
68353;SDS011;55274;43.060;25.618;2023-04-03T00:42:36;5.85;;;2.30;;
68353;SDS011;55274;43.060;25.618;2023-04-03T00:47:29;5.60;;;2.45;;
68353;SDS011;55274;43.060;25.618;2023-04-03T00:49:56;5.93;;;2.40;;
68353;SDS011;55274;43.060;25.618;2023-04-03T00:52:23;4.10;;;2.25;;
68353;SDS011;55274;43.060;25.618;2023-04-03T00:54:53;7.82;;;2.47;;
68353;SDS011;55274;43.060;25.618;2023-04-03T00:57:22;5.85;;;2.30;;
68353;SDS011;55274;43.060;25.618;2023-04-03T00:59:49;4.68;;;2.40;;
68353;SDS011;55274;43.060;25.618;2023-04-03T01:02:20;4.60;;;2.15;;
68353;SDS011;55274;43.060;25.618;2023-04-03T01:04:46;3.72;;;2.22;;
68353;SDS011;55274;43.060;25.618;2023-04-03T01:07:14;5.05;;;2.45;;
68353;SDS011;55274;43.060;25.618;2023-04-03T01:12:14;8.63;;;2.75;;
68353;SDS011;55274;43.060;25.618;2023-04-03T01:14:41;5.82;;;2.13;;
68353;SDS011;55274;43.060;25.618;2023-04-03T01:25:42;3.90;;;2.15;;
68353;SDS011;55274;43.060;25.618;2023-04-03T01:28:11;5.15;;;2.60;;
68353;SDS011;55274;43.060;25.618;2023-04-03T01:30:45;5.30;;;2.38;;
68353;SDS011;55274;43.060;25.618;2023-04-03T01:33:20;5.43;;;2.03;;
68353;SDS011;55274;43.060;25.618;2023-04-03T01:35:46;4.00;;;2.30;;
68353;SDS011;55274;43.060;25.618;2023-04-03T01:38:12;5.05;;;2.40;;
68353;SDS011;55274;43.060;25.618;2023-04-03T01:40:38;7.43;;;2.75;;
68353;SDS011;55274;43.060;25.618;2023-04-03T01:43:03;4.97;;;2.08;;
68353;SDS011;55274;43.060;25.618;2023-04-03T01:45:29;5.22;;;2.42;;
68353;SDS011;55274;43.060;25.618;2023-04-03T01:47:56;6.97;;;2.78;;
68353;SDS011;55274;43.060;25.618;2023-04-03T01:50:21;4.32;;;2.40;;
68353;SDS011;55274;43.060;25.618;2023-04-03T01:52:47;4.43;;;2.53;;
68353;SDS011;55274;43.060;25.618;2023-04-03T01:55:13;4.85;;;2.50;;
68353;SDS011;55274;43.060;25.618;2023-04-03T01:57:39;5.32;;;2.45;;
68353;SDS011;55274;43.060;25.618;2023-04-03T02:00:04;6.20;;;3.10;;
68353;SDS011;55274;43.060;25.618;2023-04-03T02:02:31;4.25;;;2.72;;
68353;SDS011;55274;43.060;25.618;2023-04-03T02:04:57;6.47;;;2.90;;
68353;SDS011;55274;43.060;25.618;2023-04-03T02:07:22;5.28;;;2.60;;
68353;SDS011;55274;43.060;25.618;2023-04-03T02:09:48;4.88;;;3.22;;
68353;SDS011;55274;43.060;25.618;2023-04-03T02:12:14;5.55;;;2.83;;
68353;SDS011;55274;43.060;25.618;2023-04-03T02:14:40;6.82;;;2.58;;
68353;SDS011;55274;43.060;25.618;2023-04-03T02:17:05;4.90;;;2.50;;
68353;SDS011;55274;43.060;25.618;2023-04-03T02:19:34;6.47;;;2.50;;
68353;SDS011;55274;43.060;25.618;2023-04-03T02:22:01;7.25;;;3.30;;
68353;SDS011;55274;43.060;25.618;2023-04-03T02:24:30;6.25;;;3.10;;
68353;SDS011;55274;43.060;25.618;2023-04-03T02:26:57;5.60;;;3.53;;
68353;SDS011;55274;43.060;25.618;2023-04-03T02:29:22;6.15;;;3.17;;
68353;SDS011;55274;43.060;25.618;2023-04-03T02:31:49;7.00;;;3.13;;
68353;SDS011;55274;43.060;25.618;2023-04-03T02:34:15;7.03;;;3.67;;
68353;SDS011;55274;43.060;25.618;2023-04-03T02:36:41;7.65;;;3.15;;
68353;SDS011;55274;43.060;25.618;2023-04-03T02:39:07;9.60;;;3.45;;
68353;SDS011;55274;43.060;25.618;2023-04-03T02:41:33;7.70;;;3.33;;
68353;SDS011;55274;43.060;25.618;2023-04-03T02:44:01;6.03;;;3.15;;
68353;SDS011;55274;43.060;25.618;2023-04-03T02:46:28;5.43;;;3.10;;
68353;SDS011;55274;43.060;25.618;2023-04-03T02:48:53;8.20;;;3.17;;
68353;SDS011;55274;43.060;25.618;2023-04-03T02:51:19;11.32;;;3.70;;
68353;SDS011;55274;43.060;25.618;2023-04-03T02:53:45;7.63;;;3.40;;
68353;SDS011;55274;43.060;25.618;2023-04-03T02:56:11;7.38;;;3.80;;
68353;SDS011;55274;43.060;25.618;2023-04-03T02:58:37;6.47;;;3.20;;
68353;SDS011;55274;43.060;25.618;2023-04-03T03:01:03;6.45;;;3.05;;
68353;SDS011;55274;43.060;25.618;2023-04-03T03:03:29;7.88;;;3.67;;
68353;SDS011;55274;43.060;25.618;2023-04-03T03:06:05;6.93;;;3.55;;
68353;SDS011;55274;43.060;25.618;2023-04-03T03:08:33;7.25;;;3.97;;
68353;SDS011;55274;43.060;25.618;2023-04-03T03:11:00;6.43;;;3.65;;
68353;SDS011;55274;43.060;25.618;2023-04-03T03:13:26;9.23;;;4.13;;
68353;SDS011;55274;43.060;25.618;2023-04-03T03:15:52;7.80;;;3.70;;
68353;SDS011;55274;43.060;25.618;2023-04-03T03:18:18;7.03;;;4.05;;
68353;SDS011;55274;43.060;25.618;2023-04-03T03:20:44;9.23;;;4.47;;
68353;SDS011;55274;43.060;25.618;2023-04-03T03:23:10;10.13;;;4.05;;
68353;SDS011;55274;43.060;25.618;2023-04-03T03:25:39;6.90;;;3.95;;
68353;SDS011;55274;43.060;25.618;2023-04-03T03:28:05;6.63;;;3.63;;
68353;SDS011;55274;43.060;25.618;2023-04-03T03:30:32;7.75;;;3.85;;
68353;SDS011;55274;43.060;25.618;2023-04-03T03:32:58;14.95;;;4.45;;
68353;SDS011;55274;43.060;25.618;2023-04-03T03:35:24;9.63;;;3.42;;
68353;SDS011;55274;43.060;25.618;2023-04-03T03:37:50;7.47;;;3.67;;
68353;SDS011;55274;43.060;25.618;2023-04-03T03:40:16;10.10;;;4.07;;
68353;SDS011;55274;43.060;25.618;2023-04-03T03:42:42;10.70;;;4.30;;
68353;SDS011;55274;43.060;25.618;2023-04-03T03:45:08;8.50;;;3.50;;
68353;SDS011;55274;43.060;25.618;2023-04-03T03:47:34;7.93;;;3.75;;
68353;SDS011;55274;43.060;25.618;2023-04-03T03:50:00;7.05;;;3.80;;
68353;SDS011;55274;43.060;25.618;2023-04-03T03:52:26;9.40;;;4.10;;
68353;SDS011;55274;43.060;25.618;2023-04-03T03:54:52;19.67;;;4.82;;
68353;SDS011;55274;43.060;25.618;2023-04-03T03:57:18;10.55;;;4.05;;
68353;SDS011;55274;43.060;25.618;2023-04-03T03:59:43;9.00;;;3.92;;
68353;SDS011;55274;43.060;25.618;2023-04-03T04:02:10;13.00;;;4.65;;
68353;SDS011;55274;43.060;25.618;2023-04-03T04:04:36;13.00;;;4.63;;
68353;SDS011;55274;43.060;25.618;2023-04-03T04:07:03;11.07;;;4.70;;
68353;SDS011;55274;43.060;25.618;2023-04-03T04:09:29;10.25;;;4.95;;
68353;SDS011;55274;43.060;25.618;2023-04-03T04:11:54;12.02;;;4.45;;
68353;SDS011;55274;43.060;25.618;2023-04-03T04:14:20;9.63;;;4.38;;
68353;SDS011;55274;43.060;25.618;2023-04-03T04:16:47;12.00;;;4.40;;
68353;SDS011;55274;43.060;25.618;2023-04-03T04:19:13;10.48;;;3.72;;
68353;SDS011;55274;43.060;25.618;2023-04-03T04:21:39;10.90;;;4.28;;
68353;SDS011;55274;43.060;25.618;2023-04-03T04:24:06;10.00;;;3.88;;
68353;SDS011;55274;43.060;25.618;2023-04-03T04:26:33;8.82;;;4.10;;
68353;SDS011;55274;43.060;25.618;2023-04-03T04:28:59;11.32;;;4.68;;
68353;SDS011;55274;43.060;25.618;2023-04-03T04:31:25;10.68;;;4.75;;
68353;SDS011;55274;43.060;25.618;2023-04-03T04:33:52;11.18;;;4.65;;
68353;SDS011;55274;43.060;25.618;2023-04-03T04:36:18;13.82;;;5.18;;
68353;SDS011;55274;43.060;25.618;2023-04-03T04:38:44;9.60;;;4.55;;
68353;SDS011;55274;43.060;25.618;2023-04-03T04:41:10;8.10;;;3.78;;
68353;SDS011;55274;43.060;25.618;2023-04-03T04:43:36;11.45;;;4.05;;
68353;SDS011;55274;43.060;25.618;2023-04-03T04:46:06;7.90;;;4.20;;
68353;SDS011;55274;43.060;25.618;2023-04-03T04:48:34;11.55;;;4.22;;
68353;SDS011;55274;43.060;25.618;2023-04-03T04:51:00;11.60;;;4.40;;
68353;SDS011;55274;43.060;25.618;2023-04-03T04:53:27;14.40;;;5.57;;
68353;SDS011;55274;43.060;25.618;2023-04-03T04:55:53;10.25;;;5.10;;
68353;SDS011;55274;43.060;25.618;2023-04-03T04:58:18;7.70;;;3.97;;
68353;SDS011;55274;43.060;25.618;2023-04-03T05:00:45;10.73;;;3.72;;
68353;SDS011;55274;43.060;25.618;2023-04-03T05:03:11;12.32;;;3.92;;
68353;SDS011;55274;43.060;25.618;2023-04-03T05:05:37;10.15;;;3.03;;
68353;SDS011;55274;43.060;25.618;2023-04-03T05:08:03;20.88;;;4.03;;
68353;SDS011;55274;43.060;25.618;2023-04-03T05:10:29;16.27;;;3.90;;
68353;SDS011;55274;43.060;25.618;2023-04-03T05:12:56;17.17;;;3.90;;
68353;SDS011;55274;43.060;25.618;2023-04-03T05:15:22;10.85;;;3.38;;
68353;SDS011;55274;43.060;25.618;2023-04-03T05:17:48;7.80;;;3.33;;
68353;SDS011;55274;43.060;25.618;2023-04-03T05:20:14;10.52;;;3.45;;
68353;SDS011;55274;43.060;25.618;2023-04-03T05:22:40;9.05;;;2.90;;
68353;SDS011;55274;43.060;25.618;2023-04-03T05:25:06;10.48;;;3.40;;
68353;SDS011;55274;43.060;25.618;2023-04-03T05:27:32;11.48;;;3.03;;
68353;SDS011;55274;43.060;25.618;2023-04-03T05:29:58;10.20;;;3.17;;
68353;SDS011;55274;43.060;25.618;2023-04-03T05:32:25;8.93;;;2.70;;
68353;SDS011;55274;43.060;25.618;2023-04-03T05:34:53;7.80;;;2.50;;
68353;SDS011;55274;43.060;25.618;2023-04-03T05:37:19;10.27;;;2.75;;
68353;SDS011;55274;43.060;25.618;2023-04-03T05:39:45;7.50;;;3.20;;
68353;SDS011;55274;43.060;25.618;2023-04-03T05:42:11;9.15;;;2.85;;
68353;SDS011;55274;43.060;25.618;2023-04-03T05:44:38;5.38;;;2.85;;
68353;SDS011;55274;43.060;25.618;2023-04-03T05:47:05;6.88;;;2.88;;
68353;SDS011;55274;43.060;25.618;2023-04-03T05:49:32;6.20;;;2.65;;
68353;SDS011;55274;43.060;25.618;2023-04-03T05:51:58;12.30;;;3.28;;
68353;SDS011;55274;43.060;25.618;2023-04-03T05:54:24;22.45;;;3.92;;
68353;SDS011;55274;43.060;25.618;2023-04-03T05:56:53;13.63;;;5.65;;
68353;SDS011;55274;43.060;25.618;2023-04-03T05:59:19;14.55;;;3.72;;
68353;SDS011;55274;43.060;25.618;2023-04-03T06:01:45;6.57;;;2.92;;
68353;SDS011;55274;43.060;25.618;2023-04-03T06:04:11;23.55;;;3.13;;
68353;SDS011;55274;43.060;25.618;2023-04-03T06:06:51;7.43;;;3.17;;
68353;SDS011;55274;43.060;25.618;2023-04-03T06:09:23;10.00;;;3.30;;
68353;SDS011;55274;43.060;25.618;2023-04-03T06:11:51;10.80;;;3.67;;
68353;SDS011;55274;43.060;25.618;2023-04-03T06:14:18;12.60;;;4.20;;
68353;SDS011;55274;43.060;25.618;2023-04-03T06:16:44;7.90;;;3.50;;
68353;SDS011;55274;43.060;25.618;2023-04-03T06:19:10;12.60;;;3.97;;
68353;SDS011;55274;43.060;25.618;2023-04-03T06:21:36;13.90;;;3.45;;
68353;SDS011;55274;43.060;25.618;2023-04-03T06:24:03;35.33;;;4.90;;
68353;SDS011;55274;43.060;25.618;2023-04-03T06:26:30;11.93;;;3.45;;
68353;SDS011;55274;43.060;25.618;2023-04-03T06:28:55;12.10;;;3.55;;
68353;SDS011;55274;43.060;25.618;2023-04-03T06:31:21;16.60;;;3.42;;
68353;SDS011;55274;43.060;25.618;2023-04-03T06:33:47;6.70;;;2.60;;
68353;SDS011;55274;43.060;25.618;2023-04-03T06:36:13;8.73;;;3.17;;
68353;SDS011;55274;43.060;25.618;2023-04-03T06:38:39;9.40;;;3.10;;
68353;SDS011;55274;43.060;25.618;2023-04-03T06:41:05;7.07;;;3.00;;
68353;SDS011;55274;43.060;25.618;2023-04-03T06:43:31;8.93;;;2.58;;
68353;SDS011;55274;43.060;25.618;2023-04-03T06:45:57;8.25;;;3.45;;
68353;SDS011;55274;43.060;25.618;2023-04-03T06:48:23;6.90;;;2.92;;
68353;SDS011;55274;43.060;25.618;2023-04-03T06:50:48;14.05;;;3.30;;
68353;SDS011;55274;43.060;25.618;2023-04-03T06:53:14;14.48;;;3.78;;
68353;SDS011;55274;43.060;25.618;2023-04-03T06:55:40;15.95;;;3.45;;
68353;SDS011;55274;43.060;25.618;2023-04-03T06:58:07;18.52;;;4.03;;
68353;SDS011;55274;43.060;25.618;2023-04-03T07:00:33;7.72;;;3.08;;
68353;SDS011;55274;43.060;25.618;2023-04-03T07:02:59;8.32;;;3.45;;
68353;SDS011;55274;43.060;25.618;2023-04-03T07:05:25;13.32;;;4.18;;
68353;SDS011;55274;43.060;25.618;2023-04-03T07:07:51;10.85;;;4.47;;
68353;SDS011;55274;43.060;25.618;2023-04-03T07:10:17;9.48;;;3.65;;
68353;SDS011;55274;43.060;25.618;2023-04-03T07:12:43;10.82;;;3.35;;
68353;SDS011;55274;43.060;25.618;2023-04-03T07:15:10;11.52;;;3.80;;
68353;SDS011;55274;43.060;25.618;2023-04-03T07:17:37;5.40;;;3.00;;
68353;SDS011;55274;43.060;25.618;2023-04-03T07:20:03;10.35;;;5.72;;
68353;SDS011;55274;43.060;25.618;2023-04-03T07:22:29;11.90;;;3.78;;
68353;SDS011;55274;43.060;25.618;2023-04-03T07:24:55;19.30;;;4.80;;
68353;SDS011;55274;43.060;25.618;2023-04-03T07:27:21;17.25;;;5.55;;
68353;SDS011;55274;43.060;25.618;2023-04-03T07:29:47;12.43;;;3.40;;
68353;SDS011;55274;43.060;25.618;2023-04-03T07:32:16;9.52;;;3.38;;
68353;SDS011;55274;43.060;25.618;2023-04-03T07:34:42;10.15;;;3.20;;
68353;SDS011;55274;43.060;25.618;2023-04-03T07:37:09;12.05;;;3.10;;
68353;SDS011;55274;43.060;25.618;2023-04-03T07:39:35;10.30;;;2.67;;
68353;SDS011;55274;43.060;25.618;2023-04-03T07:42:01;11.27;;;3.50;;
68353;SDS011;55274;43.060;25.618;2023-04-03T07:44:28;10.90;;;3.13;;
68353;SDS011;55274;43.060;25.618;2023-04-03T07:46:54;8.55;;;3.55;;
68353;SDS011;55274;43.060;25.618;2023-04-03T07:49:21;8.23;;;3.88;;
68353;SDS011;55274;43.060;25.618;2023-04-03T07:51:49;12.00;;;4.10;;
68353;SDS011;55274;43.060;25.618;2023-04-03T07:54:15;6.30;;;2.78;;
68353;SDS011;55274;43.060;25.618;2023-04-03T07:56:41;14.32;;;3.78;;
68353;SDS011;55274;43.060;25.618;2023-04-03T07:59:08;8.68;;;2.70;;
68353;SDS011;55274;43.060;25.618;2023-04-03T08:01:35;5.95;;;3.65;;
68353;SDS011;55274;43.060;25.618;2023-04-03T08:04:01;8.38;;;4.13;;
68353;SDS011;55274;43.060;25.618;2023-04-03T08:06:27;5.72;;;3.13;;
68353;SDS011;55274;43.060;25.618;2023-04-03T08:08:55;6.50;;;3.83;;
68353;SDS011;55274;43.060;25.618;2023-04-03T08:11:21;7.72;;;3.92;;
68353;SDS011;55274;43.060;25.618;2023-04-03T08:13:47;6.50;;;3.72;;
68353;SDS011;55274;43.060;25.618;2023-04-03T08:16:15;8.35;;;3.45;;
68353;SDS011;55274;43.060;25.618;2023-04-03T08:18:42;4.53;;;2.92;;
68353;SDS011;55274;43.060;25.618;2023-04-03T08:21:09;4.18;;;2.72;;
68353;SDS011;55274;43.060;25.618;2023-04-03T08:23:36;4.38;;;2.65;;
68353;SDS011;55274;43.060;25.618;2023-04-03T08:26:09;5.03;;;2.70;;
68353;SDS011;55274;43.060;25.618;2023-04-03T08:28:37;6.18;;;3.30;;
68353;SDS011;55274;43.060;25.618;2023-04-03T08:31:04;5.15;;;3.03;;
68353;SDS011;55274;43.060;25.618;2023-04-03T08:33:31;5.82;;;2.80;;
68353;SDS011;55274;43.060;25.618;2023-04-03T08:35:57;7.05;;;2.67;;
68353;SDS011;55274;43.060;25.618;2023-04-03T08:38:23;5.43;;;2.50;;
68353;SDS011;55274;43.060;25.618;2023-04-03T08:40:59;7.65;;;2.20;;
68353;SDS011;55274;43.060;25.618;2023-04-03T08:43:34;6.72;;;2.67;;
68353;SDS011;55274;43.060;25.618;2023-04-03T08:46:11;4.72;;;1.98;;
68353;SDS011;55274;43.060;25.618;2023-04-03T08:48:41;6.93;;;2.58;;
68353;SDS011;55274;43.060;25.618;2023-04-03T08:51:14;2.97;;;1.88;;
68353;SDS011;55274;43.060;25.618;2023-04-03T08:53:44;3.30;;;2.10;;
68353;SDS011;55274;43.060;25.618;2023-04-03T08:56:21;2.97;;;1.85;;
68353;SDS011;55274;43.060;25.618;2023-04-03T08:58:55;4.88;;;1.92;;
68353;SDS011;55274;43.060;25.618;2023-04-03T09:01:35;4.80;;;1.55;;
68353;SDS011;55274;43.060;25.618;2023-04-03T09:04:12;2.28;;;1.20;;
68353;SDS011;55274;43.060;25.618;2023-04-03T09:06:41;3.38;;;1.45;;
68353;SDS011;55274;43.060;25.618;2023-04-03T09:09:12;7.55;;;1.40;;
68353;SDS011;55274;43.060;25.618;2023-04-03T09:16:54;4.45;;;1.20;;
68353;SDS011;55274;43.060;25.618;2023-04-03T09:22:02;6.22;;;1.27;;
68353;SDS011;55274;43.060;25.618;2023-04-03T09:24:37;2.30;;;1.48;;
68353;SDS011;55274;43.060;25.618;2023-04-03T09:27:04;6.25;;;1.30;;
68353;SDS011;55274;43.060;25.618;2023-04-03T09:29:36;1.73;;;1.13;;
68353;SDS011;55274;43.060;25.618;2023-04-03T09:32:18;3.33;;;1.30;;
68353;SDS011;55274;43.060;25.618;2023-04-03T09:34:53;2.45;;;1.02;;
68353;SDS011;55274;43.060;25.618;2023-04-03T09:40:05;3.05;;;1.20;;
68353;SDS011;55274;43.060;25.618;2023-04-03T09:42:52;2.70;;;1.20;;
68353;SDS011;55274;43.060;25.618;2023-04-03T09:45:27;1.77;;;1.05;;
68353;SDS011;55274;43.060;25.618;2023-04-03T09:50:38;3.65;;;1.40;;
68353;SDS011;55274;43.060;25.618;2023-04-03T09:53:27;3.58;;;1.17;;
68353;SDS011;55274;43.060;25.618;2023-04-03T09:56:01;10.27;;;1.55;;
68353;SDS011;55274;43.060;25.618;2023-04-03T10:01:41;3.30;;;1.50;;
68353;SDS011;55274;43.060;25.618;2023-04-03T10:06:50;1.88;;;1.20;;
68353;SDS011;55274;43.060;25.618;2023-04-03T10:12:07;6.38;;;1.30;;
68353;SDS011;55274;43.060;25.618;2023-04-03T10:14:37;12.50;;;2.58;;
68353;SDS011;55274;43.060;25.618;2023-04-03T10:17:33;5.22;;;1.00;;
68353;SDS011;55274;43.060;25.618;2023-04-03T10:20:10;4.00;;;2.63;;
68353;SDS011;55274;43.060;25.618;2023-04-03T10:31:11;14.07;;;1.80;;
68353;SDS011;55274;43.060;25.618;2023-04-03T10:41:58;1.85;;;1.00;;
68353;SDS011;55274;43.060;25.618;2023-04-03T10:44:36;2.67;;;0.98;;
68353;SDS011;55274;43.060;25.618;2023-04-03T10:52:55;18.15;;;2.08;;
68353;SDS011;55274;43.060;25.618;2023-04-03T10:55:40;0.90;;;0.60;;
68353;SDS011;55274;43.060;25.618;2023-04-03T10:58:18;1.60;;;0.73;;
68353;SDS011;55274;43.060;25.618;2023-04-03T11:00:51;3.35;;;0.90;;
68353;SDS011;55274;43.060;25.618;2023-04-03T11:03:27;0.82;;;0.60;;
68353;SDS011;55274;43.060;25.618;2023-04-03T11:06:06;2.38;;;0.77;;
68353;SDS011;55274;43.060;25.618;2023-04-03T11:08:49;2.75;;;0.80;;
68353;SDS011;55274;43.060;25.618;2023-04-03T11:11:29;2.67;;;0.70;;
68353;SDS011;55274;43.060;25.618;2023-04-03T11:14:01;7.07;;;1.00;;
68353;SDS011;55274;43.060;25.618;2023-04-03T11:16:47;1.48;;;0.90;;
68353;SDS011;55274;43.060;25.618;2023-04-03T11:19:23;8.00;;;1.25;;
68353;SDS011;55274;43.060;25.618;2023-04-03T11:22:39;19.63;;;1.80;;
68353;SDS011;55274;43.060;25.618;2023-04-03T11:27:40;2.72;;;0.65;;
68353;SDS011;55274;43.060;25.618;2023-04-03T11:36:03;2.85;;;0.52;;
68353;SDS011;55274;43.060;25.618;2023-04-03T11:38:38;6.82;;;0.82;;
68353;SDS011;55274;43.060;25.618;2023-04-03T11:41:09;3.70;;;0.47;;
68353;SDS011;55274;43.060;25.618;2023-04-03T11:43:56;2.92;;;0.45;;
68353;SDS011;55274;43.060;25.618;2023-04-03T11:46:52;4.32;;;0.68;;
68353;SDS011;55274;43.060;25.618;2023-04-03T11:53:11;0.80;;;0.60;;
68353;SDS011;55274;43.060;25.618;2023-04-03T12:13:39;4.50;;;0.88;;
68353;SDS011;55274;43.060;25.618;2023-04-03T12:16:32;11.35;;;0.80;;
68353;SDS011;55274;43.060;25.618;2023-04-03T12:19:47;0.90;;;0.43;;
68353;SDS011;55274;43.060;25.618;2023-04-03T12:24:33;2.17;;;0.50;;
68353;SDS011;55274;43.060;25.618;2023-04-03T12:29:55;5.38;;;0.75;;
68353;SDS011;55274;43.060;25.618;2023-04-03T12:32:40;3.35;;;0.57;;
68353;SDS011;55274;43.060;25.618;2023-04-03T12:45:58;0.70;;;0.55;;
68353;SDS011;55274;43.060;25.618;2023-04-03T12:48:46;1.45;;;0.40;;
68353;SDS011;55274;43.060;25.618;2023-04-03T12:51:24;3.45;;;0.60;;
68353;SDS011;55274;43.060;25.618;2023-04-03T12:54:01;1.20;;;0.50;;
68353;SDS011;55274;43.060;25.618;2023-04-03T12:56:48;1.23;;;0.45;;
68353;SDS011;55274;43.060;25.618;2023-04-03T12:59:19;1.05;;;0.60;;
68353;SDS011;55274;43.060;25.618;2023-04-03T13:01:53;2.33;;;0.50;;
68353;SDS011;55274;43.060;25.618;2023-04-03T13:04:23;4.40;;;0.90;;
68353;SDS011;55274;43.060;25.618;2023-04-03T13:06:49;0.40;;;0.35;;
68353;SDS011;55274;43.060;25.618;2023-04-03T13:09:20;1.80;;;0.70;;
68353;SDS011;55274;43.060;25.618;2023-04-03T13:14:50;3.88;;;0.70;;
68353;SDS011;55274;43.060;25.618;2023-04-03T13:17:20;0.40;;;0.40;;
68353;SDS011;55274;43.060;25.618;2023-04-03T13:19:47;0.80;;;0.50;;
68353;SDS011;55274;43.060;25.618;2023-04-03T13:24:58;2.90;;;0.70;;
68353;SDS011;55274;43.060;25.618;2023-04-03T13:27:27;3.75;;;0.60;;
68353;SDS011;55274;43.060;25.618;2023-04-03T13:29:57;10.68;;;0.65;;
68353;SDS011;55274;43.060;25.618;2023-04-03T13:32:25;4.03;;;0.60;;
68353;SDS011;55274;43.060;25.618;2023-04-03T13:34:53;1.58;;;0.50;;
68353;SDS011;55274;43.060;25.618;2023-04-03T13:37:23;2.28;;;0.50;;
68353;SDS011;55274;43.060;25.618;2023-04-03T13:39:58;1.23;;;0.50;;
68353;SDS011;55274;43.060;25.618;2023-04-03T13:42:27;0.70;;;0.50;;
68353;SDS011;55274;43.060;25.618;2023-04-03T13:47:41;0.80;;;0.52;;
68353;SDS011;55274;43.060;25.618;2023-04-03T13:52:42;0.90;;;0.65;;
68353;SDS011;55274;43.060;25.618;2023-04-03T13:55:30;0.63;;;0.43;;
68353;SDS011;55274;43.060;25.618;2023-04-03T14:00:37;1.55;;;0.68;;
68353;SDS011;55274;43.060;25.618;2023-04-03T14:03:23;0.60;;;0.40;;
68353;SDS011;55274;43.060;25.618;2023-04-03T14:08:35;1.63;;;0.50;;
68353;SDS011;55274;43.060;25.618;2023-04-03T14:11:01;1.02;;;0.52;;
68353;SDS011;55274;43.060;25.618;2023-04-03T14:13:29;2.70;;;0.60;;
68353;SDS011;55274;43.060;25.618;2023-04-03T14:15:56;2.45;;;0.70;;
68353;SDS011;55274;43.060;25.618;2023-04-03T14:18:22;1.38;;;0.70;;
68353;SDS011;55274;43.060;25.618;2023-04-03T14:20:49;1.27;;;0.70;;
68353;SDS011;55274;43.060;25.618;2023-04-03T14:23:15;1.90;;;0.80;;
68353;SDS011;55274;43.060;25.618;2023-04-03T14:25:41;1.65;;;0.73;;
68353;SDS011;55274;43.060;25.618;2023-04-03T14:28:16;1.35;;;0.68;;
68353;SDS011;55274;43.060;25.618;2023-04-03T14:30:44;5.50;;;0.90;;
68353;SDS011;55274;43.060;25.618;2023-04-03T14:33:15;2.10;;;0.70;;
68353;SDS011;55274;43.060;25.618;2023-04-03T14:35:43;0.82;;;0.65;;
68353;SDS011;55274;43.060;25.618;2023-04-03T14:38:43;2.08;;;0.73;;
68353;SDS011;55274;43.060;25.618;2023-04-03T14:41:02;3.28;;;0.80;;
68353;SDS011;55274;43.060;25.618;2023-04-03T14:43:27;0.77;;;0.60;;
68353;SDS011;55274;43.060;25.618;2023-04-03T14:45:53;1.38;;;0.80;;
68353;SDS011;55274;43.060;25.618;2023-04-03T14:48:23;2.13;;;0.90;;
68353;SDS011;55274;43.060;25.618;2023-04-03T14:50:52;2.70;;;1.10;;
68353;SDS011;55274;43.060;25.618;2023-04-03T14:53:18;0.88;;;0.70;;
68353;SDS011;55274;43.060;25.618;2023-04-03T14:55:48;0.63;;;0.63;;
68353;SDS011;55274;43.060;25.618;2023-04-03T14:58:19;3.00;;;1.08;;
68353;SDS011;55274;43.060;25.618;2023-04-03T15:00:46;3.00;;;0.80;;
68353;SDS011;55274;43.060;25.618;2023-04-03T15:03:13;5.72;;;1.20;;
68353;SDS011;55274;43.060;25.618;2023-04-03T15:05:41;2.03;;;0.85;;
68353;SDS011;55274;43.060;25.618;2023-04-03T15:08:13;1.30;;;0.80;;
68353;SDS011;55274;43.060;25.618;2023-04-03T15:10:50;2.67;;;0.90;;
68353;SDS011;55274;43.060;25.618;2023-04-03T15:13:18;1.02;;;0.77;;
68353;SDS011;55274;43.060;25.618;2023-04-03T15:15:44;1.40;;;0.80;;
68353;SDS011;55274;43.060;25.618;2023-04-03T15:18:18;1.17;;;0.70;;
68353;SDS011;55274;43.060;25.618;2023-04-03T15:20:47;4.07;;;0.93;;
68353;SDS011;55274;43.060;25.618;2023-04-03T15:23:13;1.42;;;1.08;;
68353;SDS011;55274;43.060;25.618;2023-04-03T15:25:50;1.35;;;0.82;;
68353;SDS011;55274;43.060;25.618;2023-04-03T15:28:23;1.77;;;1.10;;
68353;SDS011;55274;43.060;25.618;2023-04-03T15:30:55;2.67;;;0.85;;
68353;SDS011;55274;43.060;25.618;2023-04-03T15:33:21;1.55;;;1.13;;
68353;SDS011;55274;43.060;25.618;2023-04-03T15:35:47;1.38;;;0.90;;
68353;SDS011;55274;43.060;25.618;2023-04-03T15:38:13;1.38;;;0.98;;
68353;SDS011;55274;43.060;25.618;2023-04-03T15:40:38;2.47;;;1.00;;
68353;SDS011;55274;43.060;25.618;2023-04-03T15:43:05;1.08;;;0.80;;
68353;SDS011;55274;43.060;25.618;2023-04-03T15:45:31;3.60;;;1.02;;
68353;SDS011;55274;43.060;25.618;2023-04-03T15:47:58;2.28;;;1.10;;
68353;SDS011;55274;43.060;25.618;2023-04-03T15:50:24;1.60;;;1.00;;
68353;SDS011;55274;43.060;25.618;2023-04-03T15:52:51;3.90;;;1.67;;
68353;SDS011;55274;43.060;25.618;2023-04-03T15:55:22;2.38;;;1.10;;
68353;SDS011;55274;43.060;25.618;2023-04-03T15:57:52;3.08;;;1.08;;
68353;SDS011;55274;43.060;25.618;2023-04-03T16:00:19;2.30;;;1.13;;
68353;SDS011;55274;43.060;25.618;2023-04-03T16:02:45;2.33;;;1.15;;
68353;SDS011;55274;43.060;25.618;2023-04-03T16:05:13;1.75;;;1.20;;
68353;SDS011;55274;43.060;25.618;2023-04-03T16:07:42;1.92;;;1.20;;
68353;SDS011;55274;43.060;25.618;2023-04-03T16:10:09;5.25;;;1.27;;
68353;SDS011;55274;43.060;25.618;2023-04-03T16:12:36;2.80;;;1.40;;
68353;SDS011;55274;43.060;25.618;2023-04-03T16:15:03;2.67;;;1.35;;
68353;SDS011;55274;43.060;25.618;2023-04-03T16:17:29;2.78;;;1.40;;
68353;SDS011;55274;43.060;25.618;2023-04-03T16:19:56;3.97;;;1.40;;
68353;SDS011;55274;43.060;25.618;2023-04-03T16:22:22;3.08;;;1.80;;
68353;SDS011;55274;43.060;25.618;2023-04-03T16:24:49;5.38;;;1.75;;
68353;SDS011;55274;43.060;25.618;2023-04-03T16:27:16;3.83;;;1.95;;
68353;SDS011;55274;43.060;25.618;2023-04-03T16:29:41;3.53;;;2.20;;
68353;SDS011;55274;43.060;25.618;2023-04-03T16:32:07;5.30;;;2.08;;
68353;SDS011;55274;43.060;25.618;2023-04-03T16:34:34;3.97;;;1.92;;
68353;SDS011;55274;43.060;25.618;2023-04-03T16:37:00;3.42;;;2.10;;
68353;SDS011;55274;43.060;25.618;2023-04-03T16:39:26;4.78;;;2.42;;
68353;SDS011;55274;43.060;25.618;2023-04-03T16:41:51;2.90;;;2.00;;